Milouin — FT9009 — position and weather

sailwx.info

Track history (hours):
 
Tides and Currents Weather Stations Pressure Air Temp Water Temp Dewpoint Dewpoint Depression Visibility Wind Speed Wind Dir Waves Ship Positions

Milouin

Last reported at 2014-Nov-01 01:18 UTC. Time now 2014-Nov-01 08:20 UTC.
Position N 47°17' W 002°01'.

Length 36 m; draft 2.5 m.

Type: Ship. MMSI: 227003190.

Date/timePositionNaut miles runAvg speedWind from/ knotsBaromVisibWave heightAir tempDewpointWater temp
2014-Nov-01 01:18N 47°17' W 002°01'0 0.0
2014-Oct-31 18:34N 47°17' W 002°01'0 0.0
2014-Oct-31 10:24N 47°17' W 002°01'0 0.0
2014-Oct-31 08:31N 47°17' W 002°01'0 0.0
2014-Oct-31 07:30N 47°17' W 002°01'0 0.0
2014-Oct-31 06:34N 47°17' W 002°01'0 0.0
2014-Oct-31 05:32N 47°17' W 002°01'0 0.0
2014-Oct-31 04:33N 47°17' W 002°01'0 0.0
2014-Oct-31 03:34N 47°17' W 002°01'0 0.0
2014-Oct-31 02:27N 47°17' W 002°01'0 0.0
2014-Oct-31 01:34N 47°17' W 002°01'0 0.0
2014-Oct-31 00:14N 47°17' W 002°01'0 0.0
2014-Oct-30 23:29N 47°17' W 002°01'0 0.0
2014-Oct-30 22:33N 47°17' W 002°01'0 0.0
2014-Oct-30 21:34N 47°17' W 002°01'0 0.0
2014-Oct-30 20:33N 47°17' W 002°01'0 0.0
2014-Oct-30 19:32N 47°17' W 002°01'0 0.0
2014-Oct-30 09:33N 47°17' W 002°01'5 4.3
2014-Oct-30 08:27N 47°18' W 002°08'0 0.0
2014-Oct-30 07:33N 47°18' W 002°08'3 2.3
2014-Oct-30 06:28N 47°18' W 002°04'2 2.4
2014-Oct-30 05:27N 47°17' W 002°01'0 0.0
2014-Oct-29 22:10N 47°17' W 002°01'0 0.0
2014-Oct-29 21:18N 47°17' W 002°01'0 0.0
2014-Oct-29 20:27N 47°17' W 002°01'0 0.0
2014-Oct-29 19:33N 47°17' W 002°01'0 0.0
2014-Oct-29 18:34N 47°17' W 002°01'4 3.9
2014-Oct-29 17:34N 47°17' W 001°55'5 4.7
2014-Oct-29 16:33N 47°14' W 001°50'0 0.2
2014-Oct-29 15:32N 47°14' W 001°50'8 6.3
2014-Oct-29 14:12N 47°18' W 002°01'4 5.3
2014-Oct-29 13:31N 47°18' W 002°06'0 0.1
2014-Oct-29 12:33N 47°18' W 002°06'0 0.1
2014-Oct-29 11:32N 47°18' W 002°06'0 0.1
2014-Oct-29 10:33N 47°18' W 002°06'0 0.2
2014-Oct-29 09:30N 47°18' W 002°06'0 0.0
2014-Oct-29 08:34N 47°18' W 002°06'0 0.1
2014-Oct-29 07:31N 47°18' W 002°07'1 0.6
2014-Oct-29 06:32N 47°18' W 002°06'3 3.2
2014-Oct-29 05:32N 47°17' W 002°01'0 0.0
2014-Oct-29 04:33N 47°17' W 002°01'0 0.0
2014-Oct-29 03:33N 47°17' W 002°01'0 0.0
2014-Oct-29 02:32N 47°17' W 002°01'0 0.0
2014-Oct-29 01:33N 47°17' W 002°01'0 0.0
2014-Oct-29 00:34N 47°17' W 002°01'0 0.0
2014-Oct-28 23:34N 47°17' W 002°01'0 0.0
2014-Oct-28 22:33N 47°17' W 002°01'0 0.0
2014-Oct-28 21:05N 47°17' W 002°01'0 0.0
2014-Oct-28 20:29N 47°17' W 002°01'0 0.0
2014-Oct-28 19:28N 47°17' W 002°01'5 1.2
2014-Oct-28 15:04N 47°18' W 002°09'0 0.3
2014-Oct-28 14:31N 47°18' W 002°09'0 0.1
2014-Oct-28 12:31N 47°18' W 002°08'0 0.0
2014-Oct-28 11:32N 47°18' W 002°08'0 0.0
2014-Oct-28 10:22N 47°18' W 002°08'0 0.2
2014-Oct-28 09:28N 47°18' W 002°08'5 1.0
2014-Oct-28 04:33N 47°17' W 002°01'5 0.3
2014-Oct-27 12:17N 47°17' W 001°54'0 0.3
2014-Oct-27 11:33N 47°17' W 001°54'0 0.4
2014-Oct-27 10:29N 47°17' W 001°55'0 0.2
2014-Oct-27 09:33N 47°17' W 001°54'0 0.3
2014-Oct-27 08:33N 47°17' W 001°55'0 0.3
2014-Oct-27 07:33N 47°17' W 001°54'2 1.8
2014-Oct-27 06:33N 47°17' W 001°57'3 3.0
2014-Oct-27 05:33N 47°17' W 002°01'0 0.0
2014-Oct-27 04:25N 47°17' W 002°01'0 0.0
2014-Oct-27 02:22N 47°17' W 002°01'0 0.0
2014-Oct-27 01:09N 47°17' W 002°01'0 0.0
2014-Oct-26 21:17N 47°17' W 002°01'4 0.4
2014-Oct-26 09:28N 47°18' W 002°07'0 0.1
2014-Oct-26 08:27N 47°18' W 002°07'  
Track history (hours):
 
Tides and Currents Weather Stations Pressure Air Temp Water Temp Dewpoint Dewpoint Depression Visibility Wind Speed Wind Dir Waves Ship Positions

Milouin

Last reported at 2014-Nov-01 01:18 UTC. Time now 2014-Nov-01 08:20 UTC.
Position N 47°17' W 002°01'.

Length 36 m; draft 2.5 m.

Type: Ship. MMSI: 227003190.

Date/timePositionNaut miles runAvg speedWind from/ knotsBaromVisibWave heightAir tempDewpointWater temp
2014-Nov-01 01:18N 47°17' W 002°01'0 0.0
2014-Oct-31 18:34N 47°17' W 002°01'0 0.0
2014-Oct-31 10:24N 47°17' W 002°01'0 0.0
2014-Oct-31 08:31N 47°17' W 002°01'0 0.0
2014-Oct-31 07:30N 47°17' W 002°01'0 0.0
2014-Oct-31 06:34N 47°17' W 002°01'0 0.0
2014-Oct-31 05:32N 47°17' W 002°01'0 0.0
2014-Oct-31 04:33N 47°17' W 002°01'0 0.0
2014-Oct-31 03:34N 47°17' W 002°01'0 0.0
2014-Oct-31 02:27N 47°17' W 002°01'0 0.0
2014-Oct-31 01:34N 47°17' W 002°01'0 0.0
2014-Oct-31 00:14N 47°17' W 002°01'0 0.0
2014-Oct-30 23:29N 47°17' W 002°01'0 0.0
2014-Oct-30 22:33N 47°17' W 002°01'0 0.0
2014-Oct-30 21:34N 47°17' W 002°01'0 0.0
2014-Oct-30 20:33N 47°17' W 002°01'0 0.0
2014-Oct-30 19:32N 47°17' W 002°01'0 0.0
2014-Oct-30 09:33N 47°17' W 002°01'5 4.3
2014-Oct-30 08:27N 47°18' W 002°08'0 0.0
2014-Oct-30 07:33N 47°18' W 002°08'3 2.3
2014-Oct-30 06:28N 47°18' W 002°04'2 2.4
2014-Oct-30 05:27N 47°17' W 002°01'0 0.0
2014-Oct-29 22:10N 47°17' W 002°01'0 0.0
2014-Oct-29 21:18N 47°17' W 002°01'0 0.0
2014-Oct-29 20:27N 47°17' W 002°01'0 0.0
2014-Oct-29 19:33N 47°17' W 002°01'0 0.0
2014-Oct-29 18:34N 47°17' W 002°01'4 3.9
2014-Oct-29 17:34N 47°17' W 001°55'5 4.7
2014-Oct-29 16:33N 47°14' W 001°50'0 0.2
2014-Oct-29 15:32N 47°14' W 001°50'8 6.3
2014-Oct-29 14:12N 47°18' W 002°01'4 5.3
2014-Oct-29 13:31N 47°18' W 002°06'0 0.1
2014-Oct-29 12:33N 47°18' W 002°06'0 0.1
2014-Oct-29 11:32N 47°18' W 002°06'0 0.1
2014-Oct-29 10:33N 47°18' W 002°06'0 0.2
2014-Oct-29 09:30N 47°18' W 002°06'0 0.0
2014-Oct-29 08:34N 47°18' W 002°06'0 0.1
2014-Oct-29 07:31N 47°18' W 002°07'1 0.6
2014-Oct-29 06:32N 47°18' W 002°06'3 3.2
2014-Oct-29 05:32N 47°17' W 002°01'0 0.0
2014-Oct-29 04:33N 47°17' W 002°01'0 0.0
2014-Oct-29 03:33N 47°17' W 002°01'0 0.0
2014-Oct-29 02:32N 47°17' W 002°01'0 0.0
2014-Oct-29 01:33N 47°17' W 002°01'0 0.0
2014-Oct-29 00:34N 47°17' W 002°01'0 0.0
2014-Oct-28 23:34N 47°17' W 002°01'0 0.0
2014-Oct-28 22:33N 47°17' W 002°01'0 0.0
2014-Oct-28 21:05N 47°17' W 002°01'0 0.0
2014-Oct-28 20:29N 47°17' W 002°01'0 0.0
2014-Oct-28 19:28N 47°17' W 002°01'5 1.2
2014-Oct-28 15:04N 47°18' W 002°09'0 0.3
2014-Oct-28 14:31N 47°18' W 002°09'0 0.1
2014-Oct-28 12:31N 47°18' W 002°08'0 0.0
2014-Oct-28 11:32N 47°18' W 002°08'0 0.0
2014-Oct-28 10:22N 47°18' W 002°08'0 0.2
2014-Oct-28 09:28N 47°18' W 002°08'5 1.0
2014-Oct-28 04:33N 47°17' W 002°01'5 0.3
2014-Oct-27 12:17N 47°17' W 001°54'0 0.3
2014-Oct-27 11:33N 47°17' W 001°54'0 0.4
2014-Oct-27 10:29N 47°17' W 001°55'0 0.2
2014-Oct-27 09:33N 47°17' W 001°54'0 0.3
2014-Oct-27 08:33N 47°17' W 001°55'0 0.3
2014-Oct-27 07:33N 47°17' W 001°54'2 1.8
2014-Oct-27 06:33N 47°17' W 001°57'3 3.0
2014-Oct-27 05:33N 47°17' W 002°01'0 0.0
2014-Oct-27 04:25N 47°17' W 002°01'0 0.0
2014-Oct-27 02:22N 47°17' W 002°01'0 0.0
2014-Oct-27 01:09N 47°17' W 002°01'0 0.0
2014-Oct-26 21:17N 47°17' W 002°01'4 0.4
2014-Oct-26 09:28N 47°18' W 002°07'0 0.1
2014-Oct-26 08:27N 47°18' W 002°07'  

Dump ship's entire track history